sensor_id;sensor_type;location;lat;lon;timestamp;temperature;humidity
6954;DHT22;3516;47.980;8.808;2023-08-06T10:40:09;18.00;99.90
6954;DHT22;3516;47.980;8.808;2023-08-06T10:42:36;17.80;99.90
6954;DHT22;3516;47.980;8.808;2023-08-06T10:45:12;17.40;99.90
6954;DHT22;3516;47.980;8.808;2023-08-06T10:47:40;16.80;99.90
6954;DHT22;3516;47.980;8.808;2023-08-06T10:50:10;16.40;99.90
6954;DHT22;3516;47.980;8.808;2023-08-06T10:52:37;16.00;99.90
6954;DHT22;3516;47.980;8.808;2023-08-06T10:55:05;15.90;99.90
6954;DHT22;3516;47.980;8.808;2023-08-06T10:57:33;15.60;99.90
6954;DHT22;3516;47.980;8.808;2023-08-06T11:00:00;15.70;99.90
6954;DHT22;3516;47.980;8.808;2023-08-06T11:02:27;15.90;99.90
6954;DHT22;3516;47.980;8.808;2023-08-06T11:04:55;15.90;99.90
6954;DHT22;3516;47.980;8.808;2023-08-06T11:07:21;16.40;99.90
6954;DHT22;3516;47.980;8.808;2023-08-06T11:09:50;16.70;99.90
6954;DHT22;3516;47.980;8.808;2023-08-06T11:12:18;16.80;99.90
6954;DHT22;3516;47.980;8.808;2023-08-06T11:14:51;16.90;99.90
6954;DHT22;3516;47.980;8.808;2023-08-06T11:17:17;16.90;99.90
6954;DHT22;3516;47.980;8.808;2023-08-06T11:19:44;16.70;99.90
6954;DHT22;3516;47.980;8.808;2023-08-06T11:22:11;16.70;99.90
6954;DHT22;3516;47.980;8.808;2023-08-06T11:24:38;16.80;99.90
6954;DHT22;3516;47.980;8.808;2023-08-06T11:27:11;16.80;99.90
6954;DHT22;3516;47.980;8.808;2023-08-06T11:29:38;16.60;99.90
6954;DHT22;3516;47.980;8.808;2023-08-06T11:32:07;16.40;99.90
6954;DHT22;3516;47.980;8.808;2023-08-06T11:34:34;16.30;99.90
6954;DHT22;3516;47.980;8.808;2023-08-06T11:37:01;16.30;99.90
6954;DHT22;3516;47.980;8.808;2023-08-06T11:39:30;16.40;99.90
6954;DHT22;3516;47.980;8.808;2023-08-06T11:41:57;16.50;99.90
6954;DHT22;3516;47.980;8.808;2023-08-06T11:44:25;16.60;99.90
6954;DHT22;3516;47.980;8.808;2023-08-06T11:46:53;16.60;99.90
6954;DHT22;3516;47.980;8.808;2023-08-06T11:49:37;16.40;99.90
6954;DHT22;3516;47.980;8.808;2023-08-06T11:52:10;16.30;99.90
6954;DHT22;3516;47.980;8.808;2023-08-06T11:54:37;16.20;99.90
6954;DHT22;3516;47.980;8.808;2023-08-06T11:57:05;16.10;99.90
6954;DHT22;3516;47.980;8.808;2023-08-06T11:59:32;16.00;99.90
6954;DHT22;3516;47.980;8.808;2023-08-06T12:02:01;16.00;99.90
6954;DHT22;3516;47.980;8.808;2023-08-06T12:04:29;15.90;99.90
6954;DHT22;3516;47.980;8.808;2023-08-06T12:07:04;15.80;99.90
6954;DHT22;3516;47.980;8.808;2023-08-06T12:09:31;15.60;99.90
6954;DHT22;3516;47.980;8.808;2023-08-06T12:11:59;15.50;99.90
6954;DHT22;3516;47.980;8.808;2023-08-06T12:14:25;15.40;99.90
6954;DHT22;3516;47.980;8.808;2023-08-06T12:16:52;15.30;99.90
6954;DHT22;3516;47.980;8.808;2023-08-06T12:19:19;15.20;99.90
6954;DHT22;3516;47.980;8.808;2023-08-06T12:21:47;15.10;99.90
6954;DHT22;3516;47.980;8.808;2023-08-06T12:24:13;15.10;99.90
6954;DHT22;3516;47.980;8.808;2023-08-06T12:26:40;15.10;99.90
6954;DHT22;3516;47.980;8.808;2023-08-06T12:29:07;15.40;99.90
6954;DHT22;3516;47.980;8.808;2023-08-06T12:31:33;15.70;99.90
6954;DHT22;3516;47.980;8.808;2023-08-06T12:34:00;16.00;99.90
6954;DHT22;3516;47.980;8.808;2023-08-06T12:36:27;16.30;99.90
6954;DHT22;3516;47.980;8.808;2023-08-06T12:38:55;16.60;99.90
6954;DHT22;3516;47.980;8.808;2023-08-06T12:41:22;16.70;99.90
6954;DHT22;3516;47.980;8.808;2023-08-06T12:43:48;16.70;99.90
6954;DHT22;3516;47.980;8.808;2023-08-06T12:46:15;16.80;99.90
6954;DHT22;3516;47.980;8.808;2023-08-06T12:48:42;16.60;99.90
6954;DHT22;3516;47.980;8.808;2023-08-06T12:51:09;16.50;99.90
6954;DHT22;3516;47.980;8.808;2023-08-06T12:53:36;16.40;99.90
6954;DHT22;3516;47.980;8.808;2023-08-06T12:56:04;16.30;99.90
6954;DHT22;3516;47.980;8.808;2023-08-06T12:58:31;16.10;99.90
6954;DHT22;3516;47.980;8.808;2023-08-06T13:00:58;16.10;99.90
6954;DHT22;3516;47.980;8.808;2023-08-06T13:03:25;16.10;99.90
6954;DHT22;3516;47.980;8.808;2023-08-06T13:05:52;16.20;99.90
6954;DHT22;3516;47.980;8.808;2023-08-06T13:08:18;16.40;99.90
6954;DHT22;3516;47.980;8.808;2023-08-06T13:10:46;16.40;99.90
6954;DHT22;3516;47.980;8.808;2023-08-06T13:13:14;16.40;99.90
6954;DHT22;3516;47.980;8.808;2023-08-06T13:15:41;16.30;99.90
6954;DHT22;3516;47.980;8.808;2023-08-06T13:18:08;16.30;99.90
6954;DHT22;3516;47.980;8.808;2023-08-06T13:20:38;16.30;99.90
6954;DHT22;3516;47.980;8.808;2023-08-06T13:23:06;16.40;99.90
6954;DHT22;3516;47.980;8.808;2023-08-06T13:25:33;16.40;99.90
6954;DHT22;3516;47.980;8.808;2023-08-06T13:28:02;16.20;99.90
6954;DHT22;3516;47.980;8.808;2023-08-06T13:30:31;15.90;99.90
6954;DHT22;3516;47.980;8.808;2023-08-06T13:32:58;15.70;99.90
6954;DHT22;3516;47.980;8.808;2023-08-06T13:35:25;15.50;99.90
6954;DHT22;3516;47.980;8.808;2023-08-06T13:37:52;15.40;99.90
6954;DHT22;3516;47.980;8.808;2023-08-06T13:40:20;15.40;99.90
6954;DHT22;3516;47.980;8.808;2023-08-06T13:42:47;15.50;99.90
6954;DHT22;3516;47.980;8.808;2023-08-06T13:45:14;15.70;99.90
6954;DHT22;3516;47.980;8.808;2023-08-06T13:47:42;16.10;99.90
6954;DHT22;3516;47.980;8.808;2023-08-06T13:50:09;16.40;99.90
6954;DHT22;3516;47.980;8.808;2023-08-06T13:52:36;16.50;99.90
6954;DHT22;3516;47.980;8.808;2023-08-06T13:55:04;16.70;99.90
6954;DHT22;3516;47.980;8.808;2023-08-06T13:57:31;16.70;99.90
6954;DHT22;3516;47.980;8.808;2023-08-06T13:59:58;16.80;99.90
6954;DHT22;3516;47.980;8.808;2023-08-06T14:02:27;16.90;99.90
6954;DHT22;3516;47.980;8.808;2023-08-06T14:04:58;17.10;99.90
6954;DHT22;3516;47.980;8.808;2023-08-06T14:07:25;17.10;99.90
6954;DHT22;3516;47.980;8.808;2023-08-06T14:10:15;17.10;99.90
6954;DHT22;3516;47.980;8.808;2023-08-06T14:12:42;17.10;99.90
6954;DHT22;3516;47.980;8.808;2023-08-06T14:15:10;17.10;99.90
6954;DHT22;3516;47.980;8.808;2023-08-06T14:17:37;16.90;99.90
6954;DHT22;3516;47.980;8.808;2023-08-06T14:20:06;16.80;99.90
6954;DHT22;3516;47.980;8.808;2023-08-06T14:22:37;16.70;99.90
6954;DHT22;3516;47.980;8.808;2023-08-06T14:25:06;16.80;99.90
6954;DHT22;3516;47.980;8.808;2023-08-06T14:27:33;16.80;99.90
6954;DHT22;3516;47.980;8.808;2023-08-06T14:30:05;16.80;99.90
6954;DHT22;3516;47.980;8.808;2023-08-06T14:32:36;17.00;99.90
6954;DHT22;3516;47.980;8.808;2023-08-06T14:35:07;17.10;99.90
6954;DHT22;3516;47.980;8.808;2023-08-06T14:37:34;17.20;99.90
6954;DHT22;3516;47.980;8.808;2023-08-06T14:40:03;17.10;99.90
6954;DHT22;3516;47.980;8.808;2023-08-06T14:42:38;17.10;99.90
6954;DHT22;3516;47.980;8.808;2023-08-06T14:45:37;17.20;99.90
6954;DHT22;3516;47.980;8.808;2023-08-06T15:13:45;17.10;99.90
6954;DHT22;3516;47.980;8.808;2023-08-06T15:16:20;17.10;99.90
6954;DHT22;3516;47.980;8.808;2023-08-06T15:18:51;16.80;99.90
6954;DHT22;3516;47.980;8.808;2023-08-06T15:23:55;16.00;99.90
6954;DHT22;3516;47.980;8.808;2023-08-06T15:26:24;15.60;99.90
